sensor_id;sensor_type;location;lat;lon;timestamp;temperature;humidity
14349;DHT22;7258;50.376;8.742;2023-06-19T00:00:10;21.40;99.90
14349;DHT22;7258;50.376;8.742;2023-06-19T00:02:17;21.50;99.90
14349;DHT22;7258;50.376;8.742;2023-06-19T00:04:19;21.50;99.90
14349;DHT22;7258;50.376;8.742;2023-06-19T00:06:22;21.50;99.90
14349;DHT22;7258;50.376;8.742;2023-06-19T00:08:26;21.50;99.90
14349;DHT22;7258;50.376;8.742;2023-06-19T00:10:29;21.50;99.90
14349;DHT22;7258;50.376;8.742;2023-06-19T00:12:32;21.50;99.90
14349;DHT22;7258;50.376;8.742;2023-06-19T00:14:36;21.50;99.90
14349;DHT22;7258;50.376;8.742;2023-06-19T00:16:39;21.50;99.90
14349;DHT22;7258;50.376;8.742;2023-06-19T00:18:42;21.50;99.90
14349;DHT22;7258;50.376;8.742;2023-06-19T00:20:45;21.40;99.90
14349;DHT22;7258;50.376;8.742;2023-06-19T00:22:48;21.40;99.90
14349;DHT22;7258;50.376;8.742;2023-06-19T00:24:55;21.40;99.90
14349;DHT22;7258;50.376;8.742;2023-06-19T00:26:58;21.40;99.90
14349;DHT22;7258;50.376;8.742;2023-06-19T00:29:04;21.40;99.90
14349;DHT22;7258;50.376;8.742;2023-06-19T00:31:08;21.40;99.90
14349;DHT22;7258;50.376;8.742;2023-06-19T00:33:12;21.30;99.90
14349;DHT22;7258;50.376;8.742;2023-06-19T00:35:15;21.30;99.90
14349;DHT22;7258;50.376;8.742;2023-06-19T00:37:19;21.20;99.90
14349;DHT22;7258;50.376;8.742;2023-06-19T00:39:22;21.10;99.90
14349;DHT22;7258;50.376;8.742;2023-06-19T00:41:27;21.00;99.90
14349;DHT22;7258;50.376;8.742;2023-06-19T00:43:32;20.80;99.90
14349;DHT22;7258;50.376;8.742;2023-06-19T00:45:36;20.80;99.90
14349;DHT22;7258;50.376;8.742;2023-06-19T00:47:39;20.70;99.90
14349;DHT22;7258;50.376;8.742;2023-06-19T00:49:42;20.70;99.90
14349;DHT22;7258;50.376;8.742;2023-06-19T00:51:45;20.70;99.90
14349;DHT22;7258;50.376;8.742;2023-06-19T00:53:48;20.60;99.90
14349;DHT22;7258;50.376;8.742;2023-06-19T00:55:52;20.60;99.90
14349;DHT22;7258;50.376;8.742;2023-06-19T00:57:56;20.60;99.90
14349;DHT22;7258;50.376;8.742;2023-06-19T01:00:00;20.50;99.90
14349;DHT22;7258;50.376;8.742;2023-06-19T01:02:06;20.50;99.90
14349;DHT22;7258;50.376;8.742;2023-06-19T01:04:09;20.40;99.90
14349;DHT22;7258;50.376;8.742;2023-06-19T01:06:17;20.40;99.90
14349;DHT22;7258;50.376;8.742;2023-06-19T01:08:41;20.40;99.90
14349;DHT22;7258;50.376;8.742;2023-06-19T01:10:50;20.30;99.90
14349;DHT22;7258;50.376;8.742;2023-06-19T01:13:00;20.30;99.90
14349;DHT22;7258;50.376;8.742;2023-06-19T01:15:05;20.30;99.90
14349;DHT22;7258;50.376;8.742;2023-06-19T01:17:11;20.30;99.90
14349;DHT22;7258;50.376;8.742;2023-06-19T01:19:19;20.20;99.90
14349;DHT22;7258;50.376;8.742;2023-06-19T01:21:22;20.20;99.90
14349;DHT22;7258;50.376;8.742;2023-06-19T01:23:26;20.10;99.90
14349;DHT22;7258;50.376;8.742;2023-06-19T01:25:29;20.10;99.90
14349;DHT22;7258;50.376;8.742;2023-06-19T01:27:32;20.10;99.90
14349;DHT22;7258;50.376;8.742;2023-06-19T01:29:35;20.10;99.90
14349;DHT22;7258;50.376;8.742;2023-06-19T01:31:44;20.10;99.90
14349;DHT22;7258;50.376;8.742;2023-06-19T01:33:49;20.00;99.90
14349;DHT22;7258;50.376;8.742;2023-06-19T01:35:54;20.00;99.90
14349;DHT22;7258;50.376;8.742;2023-06-19T01:37:58;20.00;99.90
14349;DHT22;7258;50.376;8.742;2023-06-19T01:40:05;20.00;99.90
14349;DHT22;7258;50.376;8.742;2023-06-19T01:42:12;20.00;99.90
14349;DHT22;7258;50.376;8.742;2023-06-19T01:44:15;19.90;99.90
14349;DHT22;7258;50.376;8.742;2023-06-19T01:46:19;19.90;99.90
14349;DHT22;7258;50.376;8.742;2023-06-19T01:48:22;19.80;99.90
14349;DHT22;7258;50.376;8.742;2023-06-19T01:50:25;19.80;99.90
14349;DHT22;7258;50.376;8.742;2023-06-19T01:52:28;19.70;99.90
14349;DHT22;7258;50.376;8.742;2023-06-19T01:54:31;19.70;99.90
14349;DHT22;7258;50.376;8.742;2023-06-19T01:56:36;19.70;99.90
14349;DHT22;7258;50.376;8.742;2023-06-19T01:58:39;19.60;99.90
14349;DHT22;7258;50.376;8.742;2023-06-19T02:00:42;19.70;99.90
14349;DHT22;7258;50.376;8.742;2023-06-19T02:02:45;19.70;99.90
14349;DHT22;7258;50.376;8.742;2023-06-19T02:04:48;19.70;99.90
14349;DHT22;7258;50.376;8.742;2023-06-19T02:06:51;19.70;99.90
14349;DHT22;7258;50.376;8.742;2023-06-19T02:08:54;19.70;99.90
14349;DHT22;7258;50.376;8.742;2023-06-19T02:10:57;19.70;99.90
14349;DHT22;7258;50.376;8.742;2023-06-19T02:13:01;19.80;99.90
14349;DHT22;7258;50.376;8.742;2023-06-19T02:15:05;19.80;99.90
14349;DHT22;7258;50.376;8.742;2023-06-19T02:17:08;19.80;99.90
14349;DHT22;7258;50.376;8.742;2023-06-19T02:19:11;19.80;99.90
14349;DHT22;7258;50.376;8.742;2023-06-19T02:21:13;19.90;99.90
14349;DHT22;7258;50.376;8.742;2023-06-19T02:23:16;19.80;99.90
14349;DHT22;7258;50.376;8.742;2023-06-19T02:25:19;19.80;99.90
14349;DHT22;7258;50.376;8.742;2023-06-19T02:27:22;19.90;99.90
14349;DHT22;7258;50.376;8.742;2023-06-19T02:29:27;19.90;99.90
14349;DHT22;7258;50.376;8.742;2023-06-19T02:31:31;19.90;99.90
14349;DHT22;7258;50.376;8.742;2023-06-19T02:33:34;19.90;99.90
14349;DHT22;7258;50.376;8.742;2023-06-19T02:35:37;20.00;99.90
14349;DHT22;7258;50.376;8.742;2023-06-19T02:37:39;20.00;99.90
14349;DHT22;7258;50.376;8.742;2023-06-19T02:39:42;20.10;99.90
14349;DHT22;7258;50.376;8.742;2023-06-19T02:41:45;20.10;99.90
14349;DHT22;7258;50.376;8.742;2023-06-19T02:43:48;20.10;99.90
14349;DHT22;7258;50.376;8.742;2023-06-19T02:45:52;20.10;99.90
14349;DHT22;7258;50.376;8.742;2023-06-19T02:47:55;20.10;99.90
14349;DHT22;7258;50.376;8.742;2023-06-19T02:49:59;20.10;99.90
14349;DHT22;7258;50.376;8.742;2023-06-19T02:52:02;20.00;99.90
14349;DHT22;7258;50.376;8.742;2023-06-19T02:54:05;20.00;99.90
14349;DHT22;7258;50.376;8.742;2023-06-19T02:56:08;19.90;99.90
14349;DHT22;7258;50.376;8.742;2023-06-19T02:58:11;19.90;99.90
14349;DHT22;7258;50.376;8.742;2023-06-19T03:00:14;19.90;99.90
14349;DHT22;7258;50.376;8.742;2023-06-19T03:02:18;19.90;99.90
14349;DHT22;7258;50.376;8.742;2023-06-19T03:04:22;19.90;99.90
14349;DHT22;7258;50.376;8.742;2023-06-19T03:06:28;19.90;99.90
14349;DHT22;7258;50.376;8.742;2023-06-19T03:08:33;20.00;99.90
14349;DHT22;7258;50.376;8.742;2023-06-19T03:10:36;20.00;99.90
14349;DHT22;7258;50.376;8.742;2023-06-19T03:12:38;20.00;99.90
14349;DHT22;7258;50.376;8.742;2023-06-19T03:14:41;20.10;99.90
14349;DHT22;7258;50.376;8.742;2023-06-19T03:16:44;20.10;99.90
14349;DHT22;7258;50.376;8.742;2023-06-19T03:18:48;20.10;99.90
14349;DHT22;7258;50.376;8.742;2023-06-19T03:20:54;20.10;99.90
14349;DHT22;7258;50.376;8.742;2023-06-19T03:22:57;20.10;99.90
14349;DHT22;7258;50.376;8.742;2023-06-19T03:24:59;20.10;99.90
14349;DHT22;7258;50.376;8.742;2023-06-19T03:27:02;20.10;99.90
14349;DHT22;7258;50.376;8.742;2023-06-19T03:29:05;20.10;99.90
14349;DHT22;7258;50.376;8.742;2023-06-19T03:31:08;20.10;99.90
14349;DHT22;7258;50.376;8.742;2023-06-19T03:33:11;20.10;99.90
14349;DHT22;7258;50.376;8.742;2023-06-19T03:35:15;20.10;99.90
14349;DHT22;7258;50.376;8.742;2023-06-19T03:37:18;20.00;99.90
14349;DHT22;7258;50.376;8.742;2023-06-19T03:39:21;20.00;99.90
14349;DHT22;7258;50.376;8.742;2023-06-19T03:41:24;20.10;99.90
14349;DHT22;7258;50.376;8.742;2023-06-19T03:43:27;20.10;99.90
14349;DHT22;7258;50.376;8.742;2023-06-19T03:45:29;20.10;99.90
14349;DHT22;7258;50.376;8.742;2023-06-19T03:47:32;20.10;99.90
14349;DHT22;7258;50.376;8.742;2023-06-19T03:49:35;20.10;99.90
14349;DHT22;7258;50.376;8.742;2023-06-19T03:51:39;20.10;99.90
14349;DHT22;7258;50.376;8.742;2023-06-19T03:53:42;20.10;99.90
14349;DHT22;7258;50.376;8.742;2023-06-19T03:55:46;20.10;99.90
14349;DHT22;7258;50.376;8.742;2023-06-19T03:57:48;20.10;99.90
14349;DHT22;7258;50.376;8.742;2023-06-19T03:59:51;20.10;99.90
14349;DHT22;7258;50.376;8.742;2023-06-19T04:01:55;20.10;99.90
14349;DHT22;7258;50.376;8.742;2023-06-19T04:03:58;20.20;99.90
14349;DHT22;7258;50.376;8.742;2023-06-19T04:06:01;20.20;99.90
14349;DHT22;7258;50.376;8.742;2023-06-19T04:08:06;20.20;99.90
14349;DHT22;7258;50.376;8.742;2023-06-19T04:10:09;20.20;99.90
14349;DHT22;7258;50.376;8.742;2023-06-19T04:12:13;20.20;99.90
14349;DHT22;7258;50.376;8.742;2023-06-19T04:14:16;20.20;99.90
14349;DHT22;7258;50.376;8.742;2023-06-19T04:16:19;20.20;99.90
14349;DHT22;7258;50.376;8.742;2023-06-19T04:18:22;20.30;99.90
14349;DHT22;7258;50.376;8.742;2023-06-19T04:20:25;20.20;99.90
14349;DHT22;7258;50.376;8.742;2023-06-19T04:22:28;20.20;99.90
14349;DHT22;7258;50.376;8.742;2023-06-19T04:24:32;20.20;99.90
14349;DHT22;7258;50.376;8.742;2023-06-19T04:26:36;20.10;99.90
14349;DHT22;7258;50.376;8.742;2023-06-19T04:28:39;20.10;99.90
14349;DHT22;7258;50.376;8.742;2023-06-19T04:30:46;20.10;99.90
14349;DHT22;7258;50.376;8.742;2023-06-19T04:32:51;20.20;99.90
14349;DHT22;7258;50.376;8.742;2023-06-19T04:34:55;20.20;99.90
14349;DHT22;7258;50.376;8.742;2023-06-19T04:36:59;20.30;99.90
14349;DHT22;7258;50.376;8.742;2023-06-19T04:39:02;20.30;99.90
14349;DHT22;7258;50.376;8.742;2023-06-19T04:41:07;20.40;99.90
14349;DHT22;7258;50.376;8.742;2023-06-19T04:43:10;20.50;99.90
14349;DHT22;7258;50.376;8.742;2023-06-19T04:45:12;20.60;99.90
14349;DHT22;7258;50.376;8.742;2023-06-19T04:47:17;20.70;99.90
14349;DHT22;7258;50.376;8.742;2023-06-19T04:49:20;20.80;99.90
14349;DHT22;7258;50.376;8.742;2023-06-19T04:51:25;20.80;99.90
14349;DHT22;7258;50.376;8.742;2023-06-19T04:53:31;20.90;99.90
14349;DHT22;7258;50.376;8.742;2023-06-19T04:55:33;20.90;99.90
14349;DHT22;7258;50.376;8.742;2023-06-19T04:57:38;20.90;99.90
14349;DHT22;7258;50.376;8.742;2023-06-19T04:59:41;21.00;99.90
14349;DHT22;7258;50.376;8.742;2023-06-19T05:01:45;21.00;99.90
14349;DHT22;7258;50.376;8.742;2023-06-19T05:03:48;21.10;99.90
14349;DHT22;7258;50.376;8.742;2023-06-19T05:05:51;21.10;99.90
14349;DHT22;7258;50.376;8.742;2023-06-19T05:07:54;21.20;99.90
14349;DHT22;7258;50.376;8.742;2023-06-19T05:09:57;21.20;99.90
14349;DHT22;7258;50.376;8.742;2023-06-19T05:12:00;21.30;99.90
14349;DHT22;7258;50.376;8.742;2023-06-19T05:14:04;21.40;99.90
14349;DHT22;7258;50.376;8.742;2023-06-19T05:16:07;21.40;99.90
14349;DHT22;7258;50.376;8.742;2023-06-19T05:18:10;21.50;99.90
14349;DHT22;7258;50.376;8.742;2023-06-19T05:20:13;21.70;99.90
14349;DHT22;7258;50.376;8.742;2023-06-19T05:22:16;21.80;99.90
14349;DHT22;7258;50.376;8.742;2023-06-19T05:24:20;21.90;99.90
14349;DHT22;7258;50.376;8.742;2023-06-19T05:26:23;22.10;99.90
14349;DHT22;7258;50.376;8.742;2023-06-19T05:28:27;22.30;99.90
14349;DHT22;7258;50.376;8.742;2023-06-19T05:30:31;22.50;99.90
14349;DHT22;7258;50.376;8.742;2023-06-19T05:32:36;22.70;99.90
14349;DHT22;7258;50.376;8.742;2023-06-19T05:34:39;22.80;99.90
14349;DHT22;7258;50.376;8.742;2023-06-19T05:36:42;22.90;99.90
14349;DHT22;7258;50.376;8.742;2023-06-19T05:38:46;23.10;99.90
14349;DHT22;7258;50.376;8.742;2023-06-19T05:40:50;23.20;99.90
14349;DHT22;7258;50.376;8.742;2023-06-19T05:42:53;23.20;99.90
14349;DHT22;7258;50.376;8.742;2023-06-19T05:44:57;23.20;99.90
14349;DHT22;7258;50.376;8.742;2023-06-19T05:47:01;23.30;99.90
14349;DHT22;7258;50.376;8.742;2023-06-19T05:49:04;23.40;99.90
14349;DHT22;7258;50.376;8.742;2023-06-19T05:51:07;23.40;99.90
14349;DHT22;7258;50.376;8.742;2023-06-19T05:53:10;23.50;99.90
14349;DHT22;7258;50.376;8.742;2023-06-19T05:55:16;23.70;99.90
14349;DHT22;7258;50.376;8.742;2023-06-19T05:57:19;23.80;99.90
14349;DHT22;7258;50.376;8.742;2023-06-19T05:59:23;23.90;99.90
14349;DHT22;7258;50.376;8.742;2023-06-19T06:01:26;24.00;99.90
14349;DHT22;7258;50.376;8.742;2023-06-19T06:03:31;24.10;99.90
14349;DHT22;7258;50.376;8.742;2023-06-19T06:05:34;24.10;99.90
14349;DHT22;7258;50.376;8.742;2023-06-19T06:07:38;24.10;99.90
14349;DHT22;7258;50.376;8.742;2023-06-19T06:09:42;24.20;99.90
14349;DHT22;7258;50.376;8.742;2023-06-19T06:11:45;24.10;99.90
14349;DHT22;7258;50.376;8.742;2023-06-19T06:13:48;24.10;99.90
14349;DHT22;7258;50.376;8.742;2023-06-19T06:15:51;24.20;99.90
14349;DHT22;7258;50.376;8.742;2023-06-19T06:17:54;24.20;99.90
14349;DHT22;7258;50.376;8.742;2023-06-19T06:19:58;24.20;99.90
14349;DHT22;7258;50.376;8.742;2023-06-19T06:22:01;24.30;99.90
14349;DHT22;7258;50.376;8.742;2023-06-19T06:24:05;24.50;99.90
14349;DHT22;7258;50.376;8.742;2023-06-19T06:26:08;24.60;99.90
14349;DHT22;7258;50.376;8.742;2023-06-19T06:28:11;24.70;99.90
14349;DHT22;7258;50.376;8.742;2023-06-19T06:30:14;24.70;99.90
14349;DHT22;7258;50.376;8.742;2023-06-19T06:32:20;24.90;99.70
14349;DHT22;7258;50.376;8.742;2023-06-19T06:34:23;25.00;99.50
14349;DHT22;7258;50.376;8.742;2023-06-19T06:36:28;25.20;99.30
14349;DHT22;7258;50.376;8.742;2023-06-19T06:38:36;25.30;98.90
14349;DHT22;7258;50.376;8.742;2023-06-19T06:40:39;25.50;98.80
14349;DHT22;7258;50.376;8.742;2023-06-19T06:42:43;25.70;98.40
14349;DHT22;7258;50.376;8.742;2023-06-19T06:44:46;25.90;98.10
14349;DHT22;7258;50.376;8.742;2023-06-19T06:46:54;26.20;97.90
14349;DHT22;7258;50.376;8.742;2023-06-19T06:49:45;26.30;97.30
14349;DHT22;7258;50.376;8.742;2023-06-19T06:52:29;26.20;97.10
14349;DHT22;7258;50.376;8.742;2023-06-19T06:55:11;26.20;96.70
14349;DHT22;7258;50.376;8.742;2023-06-19T06:57:47;26.10;96.70
14349;DHT22;7258;50.376;8.742;2023-06-19T07:00:05;26.20;96.60
14349;DHT22;7258;50.376;8.742;2023-06-19T07:02:45;26.30;96.30
14349;DHT22;7258;50.376;8.742;2023-06-19T07:05:57;26.50;96.00
14349;DHT22;7258;50.376;8.742;2023-06-19T07:08:27;26.80;95.70
14349;DHT22;7258;50.376;8.742;2023-06-19T07:10:30;27.10;95.20
14349;DHT22;7258;50.376;8.742;2023-06-19T07:12:48;27.20;94.20
14349;DHT22;7258;50.376;8.742;2023-06-19T07:15:31;27.10;94.50
14349;DHT22;7258;50.376;8.742;2023-06-19T07:18:06;27.00;93.40
14349;DHT22;7258;50.376;8.742;2023-06-19T07:20:25;26.70;93.90
14349;DHT22;7258;50.376;8.742;2023-06-19T07:26:48;26.80;93.90
14349;DHT22;7258;50.376;8.742;2023-06-19T07:28:51;27.30;93.10
14349;DHT22;7258;50.376;8.742;2023-06-19T07:31:13;27.60;93.40
14349;DHT22;7258;50.376;8.742;2023-06-19T07:33:26;28.00;92.60
14349;DHT22;7258;50.376;8.742;2023-06-19T07:35:49;28.00;92.40
14349;DHT22;7258;50.376;8.742;2023-06-19T07:38:53;27.90;91.90
14349;DHT22;7258;50.376;8.742;2023-06-19T07:41:27;27.70;92.20
14349;DHT22;7258;50.376;8.742;2023-06-19T07:43:54;27.10;92.70
14349;DHT22;7258;50.376;8.742;2023-06-19T07:46:11;26.70;93.30
14349;DHT22;7258;50.376;8.742;2023-06-19T07:48:20;26.50;93.50
14349;DHT22;7258;50.376;8.742;2023-06-19T07:50:30;26.60;93.80
14349;DHT22;7258;50.376;8.742;2023-06-19T07:52:38;26.60;93.90
14349;DHT22;7258;50.376;8.742;2023-06-19T07:54:51;26.60;93.70
14349;DHT22;7258;50.376;8.742;2023-06-19T07:56:54;26.30;93.70
14349;DHT22;7258;50.376;8.742;2023-06-19T07:59:02;26.20;94.10
14349;DHT22;7258;50.376;8.742;2023-06-19T08:01:07;26.10;94.30
14349;DHT22;7258;50.376;8.742;2023-06-19T08:03:10;26.00;94.40
14349;DHT22;7258;50.376;8.742;2023-06-19T08:05:19;26.10;94.50
14349;DHT22;7258;50.376;8.742;2023-06-19T08:07:37;26.30;94.50
14349;DHT22;7258;50.376;8.742;2023-06-19T08:09:41;26.50;93.90
14349;DHT22;7258;50.376;8.742;2023-06-19T08:11:50;26.70;93.80
14349;DHT22;7258;50.376;8.742;2023-06-19T08:13:59;26.80;93.80
14349;DHT22;7258;50.376;8.742;2023-06-19T08:16:24;26.90;93.70
14349;DHT22;7258;50.376;8.742;2023-06-19T08:18:33;27.00;93.70
14349;DHT22;7258;50.376;8.742;2023-06-19T08:20:55;26.90;93.30
14349;DHT22;7258;50.376;8.742;2023-06-19T08:23:43;26.90;93.50
14349;DHT22;7258;50.376;8.742;2023-06-19T08:26:41;27.00;93.60
14349;DHT22;7258;50.376;8.742;2023-06-19T08:28:47;27.50;93.90
14349;DHT22;7258;50.376;8.742;2023-06-19T08:30:59;27.50;93.40
14349;DHT22;7258;50.376;8.742;2023-06-19T08:33:13;27.50;93.20
14349;DHT22;7258;50.376;8.742;2023-06-19T08:35:34;27.20;93.50
14349;DHT22;7258;50.376;8.742;2023-06-19T08:37:50;26.70;94.50
14349;DHT22;7258;50.376;8.742;2023-06-19T08:40:25;26.40;94.60
14349;DHT22;7258;50.376;8.742;2023-06-19T08:42:49;26.30;95.00
14349;DHT22;7258;50.376;8.742;2023-06-19T08:45:18;26.40;95.00
14349;DHT22;7258;50.376;8.742;2023-06-19T08:47:29;26.50;95.00
14349;DHT22;7258;50.376;8.742;2023-06-19T08:49:53;26.40;94.90
14349;DHT22;7258;50.376;8.742;2023-06-19T08:52:11;26.40;95.00
14349;DHT22;7258;50.376;8.742;2023-06-19T08:54:23;26.30;95.20
14349;DHT22;7258;50.376;8.742;2023-06-19T08:56:47;26.10;95.50
14349;DHT22;7258;50.376;8.742;2023-06-19T08:59:07;26.00;95.70
14349;DHT22;7258;50.376;8.742;2023-06-19T09:01:18;25.90;95.80
14349;DHT22;7258;50.376;8.742;2023-06-19T09:03:34;25.80;96.20
14349;DHT22;7258;50.376;8.742;2023-06-19T09:08:35;25.70;96.30
14349;DHT22;7258;50.376;8.742;2023-06-19T09:11:18;25.70;96.50
14349;DHT22;7258;50.376;8.742;2023-06-19T09:14:11;25.70;96.70
14349;DHT22;7258;50.376;8.742;2023-06-19T09:17:19;25.70;96.60
14349;DHT22;7258;50.376;8.742;2023-06-19T09:20:15;25.90;96.70
14349;DHT22;7258;50.376;8.742;2023-06-19T09:22:54;26.30;96.20
14349;DHT22;7258;50.376;8.742;2023-06-19T09:25:27;26.40;95.80
14349;DHT22;7258;50.376;8.742;2023-06-19T09:28:23;26.50;95.80
14349;DHT22;7258;50.376;8.742;2023-06-19T09:30:56;26.80;95.60
14349;DHT22;7258;50.376;8.742;2023-06-19T09:33:09;27.00;95.20
14349;DHT22;7258;50.376;8.742;2023-06-19T09:35:27;27.00;95.00
14349;DHT22;7258;50.376;8.742;2023-06-19T09:38:10;27.20;94.70
14349;DHT22;7258;50.376;8.742;2023-06-19T09:40:27;27.30;94.70
14349;DHT22;7258;50.376;8.742;2023-06-19T09:42:56;27.40;94.60
14349;DHT22;7258;50.376;8.742;2023-06-19T09:45:23;27.50;94.60
14349;DHT22;7258;50.376;8.742;2023-06-19T09:50:24;27.80;94.30
14349;DHT22;7258;50.376;8.742;2023-06-19T09:55:49;27.50;94.30
14349;DHT22;7258;50.376;8.742;2023-06-19T09:59:32;27.40;94.40
14349;DHT22;7258;50.376;8.742;2023-06-19T10:02:42;27.30;94.70
14349;DHT22;7258;50.376;8.742;2023-06-19T10:05:42;27.50;94.80
14349;DHT22;7258;50.376;8.742;2023-06-19T10:07:46;27.80;94.50
14349;DHT22;7258;50.376;8.742;2023-06-19T10:13:32;28.60;93.20
14349;DHT22;7258;50.376;8.742;2023-06-19T10:18:49;28.80;92.80
14349;DHT22;7258;50.376;8.742;2023-06-19T10:21:59;28.60;92.60
14349;DHT22;7258;50.376;8.742;2023-06-19T10:24:25;28.30;93.30
14349;DHT22;7258;50.376;8.742;2023-06-19T10:27:33;28.40;93.30
14349;DHT22;7258;50.376;8.742;2023-06-19T10:42:19;29.60;91.70
14349;DHT22;7258;50.376;8.742;2023-06-19T10:48:25;29.80;91.50
14349;DHT22;7258;50.376;8.742;2023-06-19T10:50:51;30.00;91.10
14349;DHT22;7258;50.376;8.742;2023-06-19T10:53:25;30.00;91.20
14349;DHT22;7258;50.376;8.742;2023-06-19T10:56:07;30.20;91.00
14349;DHT22;7258;50.376;8.742;2023-06-19T10:58:43;30.40;90.70
14349;DHT22;7258;50.376;8.742;2023-06-19T11:01:00;30.80;90.60
14349;DHT22;7258;50.376;8.742;2023-06-19T11:03:11;31.10;90.10
14349;DHT22;7258;50.376;8.742;2023-06-19T11:09:35;31.30;89.00
14349;DHT22;7258;50.376;8.742;2023-06-19T11:11:42;31.30;88.90
14349;DHT22;7258;50.376;8.742;2023-06-19T11:14:00;31.40;88.70
14349;DHT22;7258;50.376;8.742;2023-06-19T11:16:51;31.40;88.00
14349;DHT22;7258;50.376;8.742;2023-06-19T11:19:33;31.40;87.60
14349;DHT22;7258;50.376;8.742;2023-06-19T11:25:23;31.30;87.90
14349;DHT22;7258;50.376;8.742;2023-06-19T11:27:49;31.10;88.20
14349;DHT22;7258;50.376;8.742;2023-06-19T11:30:16;31.10;88.30
14349;DHT22;7258;50.376;8.742;2023-06-19T11:33:24;31.00;88.40
14349;DHT22;7258;50.376;8.742;2023-06-19T11:36:07;30.90;88.40
14349;DHT22;7258;50.376;8.742;2023-06-19T11:38:32;31.00;88.30
14349;DHT22;7258;50.376;8.742;2023-06-19T11:41:31;31.00;88.40
14349;DHT22;7258;50.376;8.742;2023-06-19T11:43:41;30.90;87.40
14349;DHT22;7258;50.376;8.742;2023-06-19T11:45:53;30.80;87.60
14349;DHT22;7258;50.376;8.742;2023-06-19T11:48:27;30.70;88.80
14349;DHT22;7258;50.376;8.742;2023-06-19T11:51:33;30.60;88.90
14349;DHT22;7258;50.376;8.742;2023-06-19T11:53:37;30.30;88.50
14349;DHT22;7258;50.376;8.742;2023-06-19T11:55:53;30.10;89.20
14349;DHT22;7258;50.376;8.742;2023-06-19T11:58:37;30.20;89.40
14349;DHT22;7258;50.376;8.742;2023-06-19T12:04:11;30.10;89.10
14349;DHT22;7258;50.376;8.742;2023-06-19T12:06:28;30.30;87.90
14349;DHT22;7258;50.376;8.742;2023-06-19T12:08:56;30.40;88.00
14349;DHT22;7258;50.376;8.742;2023-06-19T12:11:49;30.50;87.50
14349;DHT22;7258;50.376;8.742;2023-06-19T12:17:53;30.90;85.20
14349;DHT22;7258;50.376;8.742;2023-06-19T12:20:28;31.10;85.20
14349;DHT22;7258;50.376;8.742;2023-06-19T12:22:51;31.50;85.10
14349;DHT22;7258;50.376;8.742;2023-06-19T12:25:10;31.60;83.50
14349;DHT22;7258;50.376;8.742;2023-06-19T12:27:20;31.70;83.30
14349;DHT22;7258;50.376;8.742;2023-06-19T12:29:23;31.70;83.10
14349;DHT22;7258;50.376;8.742;2023-06-19T12:31:59;31.60;83.30
14349;DHT22;7258;50.376;8.742;2023-06-19T12:34:15;31.50;84.20
14349;DHT22;7258;50.376;8.742;2023-06-19T12:36:49;31.50;84.10
14349;DHT22;7258;50.376;8.742;2023-06-19T12:38:54;31.80;82.00
14349;DHT22;7258;50.376;8.742;2023-06-19T12:40:57;31.90;82.70
14349;DHT22;7258;50.376;8.742;2023-06-19T12:43:19;32.00;82.80
14349;DHT22;7258;50.376;8.742;2023-06-19T12:45:40;32.10;82.90
14349;DHT22;7258;50.376;8.742;2023-06-19T12:48:17;31.90;82.60
14349;DHT22;7258;50.376;8.742;2023-06-19T12:50:38;31.80;82.50
14349;DHT22;7258;50.376;8.742;2023-06-19T12:52:42;31.50;82.80
14349;DHT22;7258;50.376;8.742;2023-06-19T12:58:29;31.50;83.50
14349;DHT22;7258;50.376;8.742;2023-06-19T13:01:07;31.30;82.50
14349;DHT22;7258;50.376;8.742;2023-06-19T13:03:19;31.40;82.80
14349;DHT22;7258;50.376;8.742;2023-06-19T13:05:54;31.40;83.10
14349;DHT22;7258;50.376;8.742;2023-06-19T13:10:09;31.00;84.40
14349;DHT22;7258;50.376;8.742;2023-06-19T13:11:10;30.90;83.70
14349;DHT22;7258;50.376;8.742;2023-06-19T13:13:27;30.50;83.40
14349;DHT22;7258;50.376;8.742;2023-06-19T13:15:31;30.60;84.10
14349;DHT22;7258;50.376;8.742;2023-06-19T13:17:49;30.60;83.10
14349;DHT22;7258;50.376;8.742;2023-06-19T13:20:02;30.80;82.90
14349;DHT22;7258;50.376;8.742;2023-06-19T13:23:03;30.70;82.90
14349;DHT22;7258;50.376;8.742;2023-06-19T13:25:12;31.10;82.60
14349;DHT22;7258;50.376;8.742;2023-06-19T13:27:42;31.50;81.50
14349;DHT22;7258;50.376;8.742;2023-06-19T13:29:50;31.80;80.80
14349;DHT22;7258;50.376;8.742;2023-06-19T13:32:01;32.10;79.10
14349;DHT22;7258;50.376;8.742;2023-06-19T13:34:21;32.40;77.90
14349;DHT22;7258;50.376;8.742;2023-06-19T13:36:35;32.50;77.60
14349;DHT22;7258;50.376;8.742;2023-06-19T13:38:48;32.40;77.50
14349;DHT22;7258;50.376;8.742;2023-06-19T13:40:59;32.30;78.10
14349;DHT22;7258;50.376;8.742;2023-06-19T13:43:57;31.90;78.40
14349;DHT22;7258;50.376;8.742;2023-06-19T13:46:16;32.10;77.60
14349;DHT22;7258;50.376;8.742;2023-06-19T13:48:23;32.40;77.10
14349;DHT22;7258;50.376;8.742;2023-06-19T13:50:51;32.50;77.30
14349;DHT22;7258;50.376;8.742;2023-06-19T13:53:44;32.80;76.10
14349;DHT22;7258;50.376;8.742;2023-06-19T14:06:27;32.40;76.40
14349;DHT22;7258;50.376;8.742;2023-06-19T14:12:47;32.00;78.30
14349;DHT22;7258;50.376;8.742;2023-06-19T14:15:12;31.80;77.80
14349;DHT22;7258;50.376;8.742;2023-06-19T14:18:08;31.70;78.00
14349;DHT22;7258;50.376;8.742;2023-06-19T14:20:39;31.60;78.50
14349;DHT22;7258;50.376;8.742;2023-06-19T14:22:52;31.70;79.20
14349;DHT22;7258;50.376;8.742;2023-06-19T14:26:05;31.80;78.70
14349;DHT22;7258;50.376;8.742;2023-06-19T14:28:10;32.10;78.70
14349;DHT22;7258;50.376;8.742;2023-06-19T14:30:20;32.00;78.80
14349;DHT22;7258;50.376;8.742;2023-06-19T14:32:46;32.20;78.40
14349;DHT22;7258;50.376;8.742;2023-06-19T14:38:16;32.20;78.30
14349;DHT22;7258;50.376;8.742;2023-06-19T14:40:44;32.00;78.70
14349;DHT22;7258;50.376;8.742;2023-06-19T14:46:17;31.70;79.40
14349;DHT22;7258;50.376;8.742;2023-06-19T14:49:01;32.20;79.30
14349;DHT22;7258;50.376;8.742;2023-06-19T14:54:35;33.20;77.00
14349;DHT22;7258;50.376;8.742;2023-06-19T14:58:34;33.40;76.10
14349;DHT22;7258;50.376;8.742;2023-06-19T15:00:57;33.70;75.80
14349;DHT22;7258;50.376;8.742;2023-06-19T15:03:30;34.00;74.20
14349;DHT22;7258;50.376;8.742;2023-06-19T15:20:51;34.80;70.80
14349;DHT22;7258;50.376;8.742;2023-06-19T15:23:17;34.90;70.10
14349;DHT22;7258;50.376;8.742;2023-06-19T15:29:53;34.80;71.20
14349;DHT22;7258;50.376;8.742;2023-06-19T15:33:14;34.70;70.40
14349;DHT22;7258;50.376;8.742;2023-06-19T15:47:03;33.30;71.00
14349;DHT22;7258;50.376;8.742;2023-06-19T16:04:27;31.50;76.20
14349;DHT22;7258;50.376;8.742;2023-06-19T16:06:30;31.40;76.90
14349;DHT22;7258;50.376;8.742;2023-06-19T16:08:33;31.40;76.90
14349;DHT22;7258;50.376;8.742;2023-06-19T16:10:38;31.30;76.70
14349;DHT22;7258;50.376;8.742;2023-06-19T16:12:41;31.20;76.80
14349;DHT22;7258;50.376;8.742;2023-06-19T16:14:44;31.10;77.00
14349;DHT22;7258;50.376;8.742;2023-06-19T16:16:47;31.30;77.20
14349;DHT22;7258;50.376;8.742;2023-06-19T16:18:51;31.60;77.50
14349;DHT22;7258;50.376;8.742;2023-06-19T16:20:55;31.80;76.70
14349;DHT22;7258;50.376;8.742;2023-06-19T16:22:58;32.30;75.70
14349;DHT22;7258;50.376;8.742;2023-06-19T16:25:01;32.80;74.20